| time (UTC) | temp C | wind direction | speed KPH | gust KPH | rain 1hr cm | rain 24hr cm | rain mn cm | humidity % | barometer mb |
| 20260508024544 | 25 | 15 | 0.0 | 0.0 | 1.14 | 2.26 | 2.21 | 1 | 1009.6 |
| 20260508023041 | 25 | 53 | 0.0 | 0.0 | 0.91 | 1.91 | 1.85 | 1 | 1009.2 |
| 20260508021541 | 24 | 73 | 0.0 | 1.6 | 0.91 | 1.78 | 1.73 | 1 | 1009.1 |
| 20260508020046 | 25 | 79 | 0.0 | 0.0 | 0.61 | 1.40 | 1.35 | 1 | 1008.8 |
| 20260508014640 | 25 | 78 | 0.0 | 1.6 | 0.86 | 1.22 | 1.09 | 1 | 1008.3 |
| 20260508013038 | 25 | 55 | 0.0 | 0.0 | 0.89 | 1.04 | 0.91 | 1 | 1007.9 |
| 20260508011543 | 25 | 30 | 0.0 | 1.6 | 0.79 | 0.94 | 0.81 | 1 | 1007.9 |
| 20260508010031 | 26 | 44 | 0.0 | 1.6 | 0.71 | 0.86 | 0.71 | 1 | 1007.8 |
| 20260508004532 | 27 | 38 | 0.0 | 17.7 | 0.15 | 0.30 | 0.18 | 1 | 1007.2 |
| 20260508003023 | 27 | 55 | 0.0 | 0.0 | 0.00 | 0.15 | 0.03 | 1 | 1007.0 |
| 20260508001520 | 29 | 77 | 0.0 | 0.0 | 0.00 | 0.15 | 0.03 | 21 | 1006.7 |
| 20260508000014 | 30 | 78 | 0.0 | 0.0 | 0.00 | 0.15 | 0.03 | 23 | 1006.3 |
| 20260507234510 | 30 | 78 | 0.0 | 0.0 | 0.00 | 0.15 | 0.03 | 25 | 1006.1 |
| 20260507233014 | 30 | 78 | 0.0 | 0.0 | 0.00 | 0.15 | 0.03 | 27 | 1006.0 |
| 20260507231501 | 30 | 78 | 0.0 | 0.0 | 0.00 | 0.15 | 0.03 | 31 | 1005.9 |
| 20260507230056 | 30 | 78 | 0.0 | 0.0 | 0.00 | 0.15 | 0.03 | 41 | 1005.7 |
| 20260507224557 | 30 | 78 | 0.0 | 0.0 | 0.00 | 0.15 | 0.03 | 47 | 1005.5 |
| 20260507223047 | 30 | 167 | 0.0 | 0.0 | 0.00 | 0.15 | 0.03 | 52 | 1005.3 |
| 20260507221543 | 30 | 168 | 0.0 | 0.0 | 0.00 | 0.15 | 0.03 | 51 | 1005.3 |
| 20260507220038 | 30 | 168 | 0.0 | 0.0 | 0.00 | 0.15 | 0.03 | 50 | 1005.2 |
| 20260507214533 | 30 | 169 | 0.0 | 0.0 | 0.00 | 0.15 | 0.03 | 51 | 1005.2 |
| 20260507213034 | 30 | 176 | 0.0 | 0.0 | 0.00 | 0.15 | 0.03 | 47 | 1005.2 |
| 20260507211625 | 30 | 175 | 0.0 | 0.0 | 0.00 | 0.15 | 0.03 | 46 | 1005.2 |
| 20260507210020 | 30 | 155 | 0.0 | 0.0 | 0.00 | 0.15 | 0.03 | 45 | 1005.4 |
| 20260507204520 | 30 | 145 | 0.0 | 0.0 | 0.00 | 0.15 | 0.03 | 49 | 1005.5 |
| 20260507203012 | 30 | 143 | 0.0 | 0.0 | 0.00 | 0.15 | 0.03 | 48 | 1005.5 |
| 20260507201514 | 30 | 165 | 0.0 | 0.0 | 0.00 | 0.15 | 0.03 | 50 | 1005.7 |
| 20260507194620 | 30 | 201 | 0.0 | 0.0 | 0.00 | 0.15 | 0.03 | 45 | 1006.0 |
| 20260507193055 | 30 | 146 | 0.0 | 0.0 | 0.00 | 0.15 | 0.03 | 37 | 1006.2 |
| 20260507191550 | 30 | 142 | 0.0 | 9.7 | 0.00 | 0.15 | 0.03 | 38 | 1006.5 |
| 20260507190052 | 30 | 169 | 0.0 | 0.0 | 0.00 | 0.15 | 0.03 | 35 | 1006.7 |
| 20260507184540 | 30 | 153 | 0.0 | 0.0 | 0.00 | 0.15 | 0.03 | 25 | 1006.8 |
| 20260507183043 | 30 | 221 | 0.0 | 0.0 | 0.00 | 0.15 | 0.03 | 22 | 1007.1 |
| 20260507181531 | 30 | 167 | 0.0 | 0.0 | 0.00 | 0.15 | 0.03 | 29 | 1007.4 |
| 20260507180033 | 30 | 155 | 0.0 | 6.4 | 0.00 | 0.15 | 0.03 | 25 | 1007.7 |
| 20260507174523 | 29 | 173 | 0.0 | 0.0 | 0.00 | 0.15 | 0.03 | 19 | 1008.1 |
| 20260507173029 | 29 | 203 | 0.0 | 0.0 | 0.00 | 0.15 | 0.03 | 13 | 1008.4 |
| 20260507171530 | 28 | 147 | 0.0 | 0.0 | 0.00 | 0.15 | 0.03 | 19 | 1008.6 |
| 20260507170009 | 28 | 217 | 0.0 | 0.0 | 0.00 | 0.15 | 0.03 | 1 | 1008.9 |
| 20260507164505 | 28 | 142 | 0.0 | 0.0 | 0.00 | 0.15 | 0.03 | 1 | 1009.1 |
| 20260507163102 | 28 | 91 | 0.0 | 0.0 | 0.00 | 0.15 | 0.03 | 1 | 1009.3 |
| 20260507161604 | 27 | 128 | 0.0 | 0.0 | 0.00 | 0.15 | 0.03 | 1 | 1009.6 |
| 20260507160052 | 27 | 98 | 0.0 | 0.0 | 0.00 | 0.15 | 0.03 | 1 | 1009.7 |
| 20260507154549 | 27 | 135 | 0.0 | 6.4 | 0.00 | 0.15 | 0.03 | 1 | 1009.7 |
| 20260507153048 | 27 | 116 | 0.0 | 0.0 | 0.00 | 0.15 | 0.03 | 1 | 1009.9 |
| 20260507151538 | 27 | 152 | 0.0 | 0.0 | 0.00 | 0.15 | 0.03 | 1 | 1010.0 |
| 20260507150034 | 26 | 118 | 0.0 | 0.0 | 0.00 | 0.15 | 0.03 | 1 | 1009.9 |
| 20260507144533 | 26 | 126 | 0.0 | 0.0 | 0.00 | 0.15 | 0.03 | 1 | 1009.8 |
| 20260507143025 | 26 | 134 | 0.0 | 0.0 | 0.00 | 0.15 | 0.03 | 1 | 1009.8 |
| 20260507141522 | 26 | 146 | 0.0 | 0.0 | 0.00 | 0.15 | 0.03 | 1 | 1009.7 |
| 20260507140016 | 26 | 133 | 0.0 | 0.0 | 0.00 | 0.15 | 0.03 | 1 | 1009.7 |
| 20260507134517 | 25 | 107 | 0.0 | 0.0 | 0.00 | 0.15 | 0.03 | 1 | 1009.4 |
| 20260507133011 | 25 | 78 | 0.0 | 0.0 | 0.00 | 0.15 | 0.03 | 1 | 1009.2 |
| 20260507131504 | 25 | 40 | 0.0 | 0.0 | 0.00 | 0.15 | 0.03 | 1 | 1009.1 |
| 20260507130057 | 25 | 299 | 0.0 | 0.0 | 0.00 | 0.15 | 0.03 | 1 | 1008.9 |
| 20260507124553 | 25 | 282 | 0.0 | 0.0 | 0.00 | 0.15 | 0.03 | 1 | 1008.8 |
| 20260507123049 | 25 | 282 | 0.0 | 0.0 | 0.00 | 0.15 | 0.03 | 1 | 1008.6 |
| 20260507121545 | 24 | 283 | 0.0 | 0.0 | 0.00 | 0.15 | 0.03 | 1 | 1008.5 |
| 20260507120044 | 24 | 281 | 0.0 | 0.0 | 0.00 | 0.15 | 0.03 | 1 | 1008.3 |
| 20260507114535 | 24 | 281 | 0.0 | 0.0 | 0.00 | 0.15 | 0.03 | 1 | 1008.4 |
| 20260507113040 | -17 | 0.0 | 0.0 | 0.00 | 0.15 | 0.03 | 1008.4 | ||
| 20260507111526 | 70 | 281 | 0.0 | 0.0 | 0.00 | 0.15 | 0.03 | 1 | 1008.6 |
| 20260507110025 | 24 | 281 | 0.0 | 0.0 | 0.00 | 0.15 | 0.03 | 1 | 1008.7 |
| 20260507104517 | 24 | 274 | 0.0 | 0.0 | 0.00 | 0.15 | 0.03 | 1 | 1009.0 |
| 20260507103012 | 24 | 215 | 0.0 | 0.0 | 0.00 | 0.15 | 0.03 | 1 | 1008.9 |
| 20260507101508 | 25 | 213 | 0.0 | 0.0 | 0.00 | 0.15 | 0.03 | 1 | 1009.1 |
| 20260507100003 | 25 | 200 | 0.0 | 0.0 | 0.00 | 0.15 | 0.03 | 1 | 1009.1 |
| 20260507094600 | 25 | 186 | 0.0 | 0.0 | 0.00 | 0.15 | 0.03 | 1 | 1009.1 |
| 20260507093054 | 25 | 194 | 0.0 | 0.0 | 0.00 | 0.15 | 0.03 | 1 | 1009.1 |
| 20260507091550 | 25 | 217 | 0.0 | 0.0 | 0.00 | 0.15 | 0.03 | 1 | 1009.2 |
| 20260507090047 | 25 | 199 | 0.0 | 14.5 | 0.00 | 0.15 | 0.03 | 1 | 1009.2 |
| 20260507084541 | 25 | 178 | 0.0 | 0.0 | 0.03 | 0.15 | 0.03 | 1 | 1009.2 |
| 20260507083037 | 25 | 177 | 0.0 | 0.0 | 0.03 | 0.15 | 0.03 | 1 | 1009.1 |
| 20260507081541 | 25 | 173 | 0.0 | 1.6 | 0.03 | 0.15 | 0.03 | 1 | 1009.1 |
| 20260507080027 | 25 | 165 | 0.0 | 0.0 | 0.03 | 0.15 | 0.03 | 1 | 1009.2 |
| 20260507074529 | 25 | 132 | 0.0 | 0.0 | 0.00 | 0.13 | 0.00 | 1 | 1009.3 |
| 20260507073018 | 25 | 132 | 0.0 | 0.0 | 0.00 | 0.13 | 0.00 | 1 | 1009.3 |
| 20260507071513 | 25 | 138 | 0.0 | 0.0 | 0.00 | 0.13 | 0.00 | 1 | 1009.6 |
| 20260507070012 | 25 | 108 | 0.0 | 0.0 | 0.00 | 0.13 | 0.00 | 1 | 1009.5 |
| 20260507064505 | 25 | 108 | 0.0 | 0.0 | 0.00 | 0.13 | 0.00 | 1 | 1009.5 |
| 20260507063117 | 25 | 108 | 0.0 | 0.0 | 0.00 | 0.13 | 0.00 | 1 | 1009.6 |
| 20260507061557 | 25 | 108 | 0.0 | 0.0 | 0.00 | 0.13 | 0.00 | 1 | 1009.8 |
| 20260507060052 | 25 | 108 | 0.0 | 0.0 | 0.00 | 0.13 | 0.00 | 1 | 1009.8 |
| 20260507054547 | 25 | 108 | 0.0 | 0.0 | 0.00 | 0.13 | 0.00 | 1 | 1009.9 |
| 20260507053044 | 25 | 83 | 0.0 | 0.0 | 0.00 | 0.13 | 0.00 | 1 | 1010.1 |
| 20260507051540 | 25 | 103 | 0.0 | 0.0 | 0.00 | 0.13 | 0.00 | 1 | 1010.3 |
| 20260507050036 | 26 | 86 | 0.0 | 0.0 | 0.00 | 0.13 | 0.00 | 1 | 1010.5 |
| 20260507044533 | 26 | 67 | 0.0 | 0.0 | 0.00 | 0.13 | 0.13 | 1 | 1010.4 |
| 20260507043030 | 25 | 65 | 0.0 | 1.6 | 0.00 | 0.13 | 0.13 | 1 | 1010.5 |
| 20260507041522 | 25 | 27 | 0.0 | 0.0 | 0.00 | 0.13 | 0.13 | 1 | 1010.7 |
| 20260507040017 | 25 | 26 | 0.0 | 0.0 | 0.00 | 0.13 | 0.13 | 1 | 1010.7 |
| 20260507034514 | 25 | 321 | 0.0 | 0.0 | 0.03 | 0.13 | 0.13 | 1 | 1010.6 |
| 20260507033011 | 25 | 321 | 0.0 | 0.0 | 0.03 | 0.13 | 0.13 | 1 | 1010.4 |
| 20260507031503 | 25 | 321 | 0.0 | 0.0 | 0.03 | 0.13 | 0.13 | 1 | 1010.1 |
| 20260507030104 | 25 | 338 | 0.0 | 0.0 | 0.05 | 0.13 | 0.13 | 1 | 1009.8 |